Shevington, United Kingdom
Current Conditions -  °F | °C
As of 10:20 AM on Saturday 20 Dec 2014 (Local Time) from EGNO Reporting Station
Scattered Clouds Scattered Clouds  
Wind Chill: 39°   Ceiling: Unl
Heat Index: 46°   Visibility: 6mi
Dew Point: 39°   Wind: 21mph
Humidity: 76%   Direction: 300°WNW
Pressure: 30.15"   Gusts: NA
Location:  53.57°N, 2.69°W
Report Text: EGNO 201020Z 30018KT 9999 FEW024CB SCT040 08/04 Q1021
Loading
Personal Weather Stations






























Interactive Weather Map New forecast layout! Learn more

10-Day Weather Forecast

Advertisements
Track Severe Weather on mobile